createdAt,value
2022-08-05T00:01:28.616Z,21.92572
2022-08-05T00:06:33.214Z,21.711
2022-08-05T00:11:48.740Z,21.75388
2022-08-05T00:16:53.260Z,22.56227
2022-08-05T00:21:55.777Z,21.81995
2022-08-05T00:26:57.508Z,20.57798
2022-08-05T00:32:12.551Z,20.49254
2022-08-05T00:37:16.840Z,19.50088
2022-08-05T00:42:31.546Z,22.10678
2022-08-05T00:47:53.458Z,20.7873
2022-08-05T00:52:59.433Z,20.83717
2022-08-05T00:58:01.087Z,22.43585
2022-08-05T01:03:02.699Z,23.4809
2022-08-05T01:08:41.990Z,23.88876
2022-08-05T01:13:58.967Z,23.07559
2022-08-05T01:19:01.410Z,22.9822
2022-08-05T01:24:03.061Z,23.21154
2022-08-05T01:29:15.259Z,21.63095
2022-08-05T01:34:17.781Z,21.77389
2022-08-05T01:39:46.174Z,22.00989
2022-08-05T01:44:54.344Z,22.23478
2022-08-05T01:50:02.309Z,22.25289
2022-08-05T01:55:04.848Z,21.31331
2022-08-05T02:00:12.081Z,20.20794
2022-08-05T02:05:14.102Z,21.25391
2022-08-05T02:10:17.370Z,21.54201
2022-08-05T02:15:19.648Z,21.66335
2022-08-05T02:20:22.184Z,20.64723
2022-08-05T02:25:23.881Z,18.98283
2022-08-05T02:30:27.283Z,20.62118
2022-08-05T02:35:33.163Z,20.18792
2022-08-05T02:40:39.480Z,20.73299
2022-08-05T02:45:52.688Z,20.34484
2022-08-05T02:50:55.593Z,20.20762
2022-08-05T02:56:00.252Z,19.53995
2022-08-05T03:01:04.001Z,20.18856
2022-08-05T03:06:54.852Z,19.66859
2022-08-05T03:12:01.934Z,19.93953
2022-08-05T03:17:08.701Z,18.16493
2022-08-05T03:22:16.060Z,19.24456
2022-08-05T03:27:19.436Z,18.22179
2022-08-05T03:32:21.013Z,17.31052
2022-08-05T03:37:45.648Z,18.1913
2022-08-05T03:42:51.687Z,18.12999
2022-08-05T03:47:57.168Z,18.65821
2022-08-05T03:55:51.762Z,18.78876
2022-08-05T04:01:11.103Z,18.32184
2022-08-05T04:06:14.782Z,19.16578
2022-08-05T04:11:16.771Z,18.65154
2022-08-05T04:16:24.228Z,18.66012
2022-08-05T04:22:10.163Z,18.37997
2022-08-05T04:27:13.822Z,18.38727
2022-08-05T04:32:30.709Z,17.70787
2022-08-05T04:38:01.405Z,16.94938
2022-08-05T04:43:11.134Z,17.37786
2022-08-05T04:48:27.614Z,15.19104
2022-08-05T04:53:33.529Z,14.55803
2022-08-05T04:58:37.192Z,15.68462
2022-08-05T05:03:42.127Z,15.74623
2022-08-05T05:08:44.344Z,16.67369
2022-08-05T05:13:51.677Z,16.61842
2022-08-05T05:19:16.439Z,16.40625
2022-08-05T05:24:19.784Z,15.89329
2022-08-05T05:29:21.391Z,15.41655
2022-08-05T05:34:26.813Z,16.40625
2022-08-05T05:39:34.531Z,15.81738
2022-08-05T05:44:43.011Z,16.28746
2022-08-05T05:49:47.659Z,14.75336
2022-08-05T05:54:58.764Z,15.66207
2022-08-05T06:00:00.876Z,14.68762
2022-08-05T06:05:03.465Z,14.18928
2022-08-05T06:10:12.091Z,15.25425
2022-08-05T06:15:24.030Z,14.34205
2022-08-05T06:20:26.123Z,14.85659
2022-08-05T06:26:13.831Z,15.2787
2022-08-05T06:31:22.749Z,15.05955
2022-08-05T06:36:37.375Z,15.20914
2022-08-05T06:41:59.479Z,13.78242
2022-08-05T06:47:02.308Z,15.26504
2022-08-05T06:52:04.709Z,15.21391
2022-08-05T06:58:03.713Z,14.85151
2022-08-05T07:03:22.324Z,14.76289
2022-08-05T07:08:34.439Z,14.70858
2022-08-05T07:13:46.365Z,13.50451
2022-08-05T07:19:00.338Z,14.31093
2022-08-05T07:24:03.343Z,14.63204
2022-08-05T07:29:12.787Z,13.50515
2022-08-05T07:34:14.437Z,14.25439
2022-08-05T07:39:50.418Z,14.37413
2022-08-05T07:45:07.760Z,13.84372
2022-08-05T07:50:16.453Z,13.97362
2022-08-05T07:55:57.191Z,13.51499
2022-08-05T08:01:12.289Z,13.5836
2022-08-05T08:06:14.652Z,13.14053
2022-08-05T08:11:16.291Z,12.77782
2022-08-05T08:16:35.017Z,12.3192
2022-08-05T08:21:52.446Z,12.61997
2022-08-05T08:26:54.155Z,12.47832
2022-08-05T08:31:55.770Z,13.8993
2022-08-05T08:37:01.726Z,13.63568
2022-08-05T08:42:10.750Z,13.25519
2022-08-05T08:48:06.775Z,13.03
2022-08-05T08:53:14.627Z,12.89025
2022-08-05T08:58:16.524Z,11.66271
2022-08-05T09:03:19.186Z,12.07686
2022-08-05T09:08:27.322Z,13.36349
2022-08-05T09:13:31.440Z,12.29506
2022-08-05T09:18:33.848Z,13.23962
2022-08-05T09:23:37.233Z,12.85341
2022-08-05T09:28:45.135Z,11.85772
2022-08-05T09:33:46.746Z,11.79991
2022-08-05T09:38:52.577Z,12.074
2022-08-05T09:43:54.369Z,12.10704
2022-08-05T09:49:08.239Z,12.52755
2022-08-05T09:54:29.050Z,12.65618
2022-08-05T09:59:36.911Z,12.3751
2022-08-05T10:04:39.418Z,11.3848
2022-08-05T10:09:45.441Z,12.17278
2022-08-05T10:14:47.317Z,11.45817
2022-08-05T10:20:03.972Z,11.88344
2022-08-05T10:25:14.337Z,11.67763
2022-08-05T10:31:20.589Z,12.17596
2022-08-05T10:37:53.753Z,11.99492
2022-08-05T10:42:59.166Z,12.49706
2022-08-05T10:48:31.375Z,12.27346
2022-08-05T10:53:35.262Z,11.6481
2022-08-05T10:58:48.572Z,12.26266
2022-08-05T11:03:52.537Z,12.42305
2022-08-05T11:08:54.132Z,12.15404
2022-08-05T11:13:58.331Z,11.96189
2022-08-05T11:19:00.092Z,11.91711
2022-08-05T11:25:16.815Z,11.64397
2022-08-05T11:31:08.241Z,10.54665
2022-08-05T11:36:11.549Z,11.38798
2022-08-05T11:41:58.154Z,11.51057
2022-08-05T11:47:11.067Z,11.72432
2022-08-05T11:52:16.673Z,11.31779
2022-08-05T11:57:39.428Z,10.72927
2022-08-05T12:03:12.921Z,11.16979
2022-08-05T12:08:17.945Z,10.88045
2022-08-05T12:13:47.563Z,10.25637
2022-08-05T12:18:53.020Z,10.3075
2022-08-05T12:23:55.143Z,10.62859
2022-08-05T12:28:56.974Z,10.59112
2022-08-05T12:33:58.708Z,10.64479
2022-08-05T12:39:00.540Z,10.18618
2022-08-05T12:44:02.264Z,10.06295
2022-08-05T12:49:13.056Z,9.84603
2022-08-05T12:54:16.727Z,9.69867
2022-08-05T12:59:20.779Z,10.65083
2022-08-05T13:04:25.715Z,9.83174
2022-08-05T13:09:28.366Z,10.27511
2022-08-05T13:14:36.312Z,10.82551
2022-08-05T13:19:52.196Z,11.11992
2022-08-05T13:25:00.378Z,11.48675
2022-08-05T13:30:33.920Z,11.39878
2022-08-05T13:35:47.053Z,11.75958
2022-08-05T13:40:53.843Z,11.88503
2022-08-05T13:45:55.820Z,11.96824
2022-08-05T13:50:58.269Z,11.529
2022-08-05T13:56:02.266Z,12.48149
2022-08-05T14:01:04.272Z,12.92424
2022-08-05T14:06:26.742Z,12.98173
2022-08-05T14:11:31.248Z,12.57741
2022-08-05T14:16:33.115Z,13.86532
2022-08-05T14:22:09.337Z,14.16578
2022-08-05T14:27:17.795Z,14.26138
2022-08-05T14:32:27.421Z,14.76575
2022-08-05T14:37:48.211Z,14.86961
2022-08-05T14:42:50.896Z,14.73177
2022-08-05T14:48:05.016Z,15.12561
2022-08-05T14:53:07.943Z,14.94298
2022-08-05T14:58:11.321Z,15.53883
2022-08-05T15:03:13.960Z,14.55136
2022-08-05T15:08:38.068Z,13.90343
2022-08-05T15:13:59.470Z,14.97061
2022-08-05T15:19:01.537Z,14.43829
2022-08-05T15:24:03.149Z,13.60234
2022-08-05T15:29:04.729Z,14.84801
2022-08-05T15:34:32.442Z,15.89425
2022-08-05T15:41:00.284Z,16.73276
2022-08-05T15:46:21.521Z,17.76504
2022-08-05T15:52:03.607Z,17.38294
2022-08-05T15:57:15.904Z,17.58622
2022-08-05T16:02:25.443Z,17.38643
2022-08-05T16:07:29.564Z,18.89389
2022-08-05T16:12:31.620Z,20.21397
2022-08-05T16:17:33.606Z,20.08056
2022-08-05T16:22:35.400Z,20.24891
2022-08-05T16:27:47.450Z,21.90221
2022-08-05T16:33:07.074Z,20.8232
2022-08-05T16:38:18.560Z,21.87903
2022-08-05T16:43:26.526Z,22.16268
2022-08-05T16:48:33.523Z,23.19184
2022-08-05T16:54:05.024Z,23.10005
2022-08-05T16:59:14.694Z,22.55783
2022-08-05T17:04:18.761Z,22.7697
2022-08-05T17:09:20.543Z,22.36502
2022-08-05T17:14:34.114Z,21.76626
2022-08-05T17:19:36.580Z,22.56259
2022-08-05T17:24:40.925Z,23.96246
2022-08-05T17:29:51.494Z,22.5718
2022-08-05T17:35:01.485Z,24.03551
2022-08-05T17:40:03.444Z,23.26427
2022-08-05T17:45:09.815Z,24.67558
2022-08-05T17:50:27.837Z,24.09523
2022-08-05T17:55:37.734Z,24.84616
2022-08-05T18:00:44.657Z,24.19656
2022-08-05T18:05:53.032Z,25.2788
2022-08-05T18:10:55.445Z,25.36647
2022-08-05T18:15:59.096Z,25.92618
2022-08-05T18:21:00.820Z,26.02592
2022-08-05T18:26:03.293Z,24.43829
2022-08-05T18:31:07.010Z,26.26797
2022-08-05T18:36:15.438Z,25.77307
2022-08-05T18:41:59.638Z,24.79756
2022-08-05T18:47:03.764Z,25.57803
2022-08-05T18:52:08.675Z,24.68606
2022-08-05T18:57:15.471Z,24.50341
2022-08-05T19:02:27.610Z,23.52124
2022-08-05T19:07:46.133Z,23.68769
2022-08-05T19:12:48.611Z,26.46175
2022-08-05T19:18:08.119Z,27.30005
2022-08-05T19:24:03.878Z,27.11231
2022-08-05T19:29:08.149Z,27.21809
2022-08-05T19:34:11.043Z,26.62312
2022-08-05T19:39:13.165Z,25.98653
2022-08-05T19:44:19.257Z,26.28005
2022-08-05T19:49:20.930Z,27.13105
2022-08-05T19:54:29.646Z,27.34897
2022-08-05T20:00:01.334Z,26.53354
2022-08-05T20:05:04.826Z,26.693
2022-08-05T20:10:13.841Z,25.17493
2022-08-05T20:15:47.712Z,27.98175
2022-08-05T20:20:55.215Z,27.41949
2022-08-05T20:25:57.887Z,28.6822
2022-08-05T20:31:01.476Z,28.3388
2022-08-05T20:36:03.341Z,29.25241
2022-08-05T20:41:08.051Z,28.53162
2022-08-05T20:46:10.247Z,29.03385
2022-08-05T20:51:14.194Z,27.82863
2022-08-05T20:56:17.291Z,27.24128
2022-08-05T21:01:37.311Z,28.76415
2022-08-05T21:06:45.616Z,29.4141
2022-08-05T21:12:10.868Z,28.92775
2022-08-05T21:17:13.714Z,27.23334
2022-08-05T21:22:15.323Z,26.91568
2022-08-05T21:27:20.691Z,28.61962
2022-08-05T21:32:27.761Z,28.54528
2022-08-05T21:37:29.445Z,29.80547
2022-08-05T21:42:44.150Z,30.59392
2022-08-05T21:47:57.025Z,28.7524
2022-08-05T21:53:08.429Z,28.46618
2022-08-05T21:58:19.449Z,28.89948
2022-08-05T22:03:52.630Z,28.88232
2022-08-05T22:08:55.218Z,28.00239
2022-08-05T22:14:33.835Z,31.03708
2022-08-05T22:20:00.644Z,29.60788
2022-08-05T22:25:17.825Z,28.13232
2022-08-05T22:30:32.425Z,28.79115
2022-08-05T22:35:49.286Z,26.99509
2022-08-05T22:40:55.022Z,30.93383
2022-08-05T22:45:57.164Z,28.49255
2022-08-05T22:51:00.110Z,28.28734
2022-08-05T22:56:09.849Z,30.61076
2022-08-05T23:01:11.591Z,31.71404
2022-08-05T23:06:15.289Z,32.31763
2022-08-05T23:11:21.763Z,31.6683
2022-08-05T23:16:33.340Z,32.75285
2022-08-05T23:21:42.757Z,33.02828
2022-08-05T23:26:49.936Z,32.85641
2022-08-05T23:31:51.549Z,30.71909
2022-08-05T23:36:54.852Z,31.18511
2022-08-05T23:41:56.611Z,30.87633
2022-08-05T23:46:58.280Z,31.52979
2022-08-05T23:51:59.932Z,31.94181
2022-08-05T23:57:03.729Z,31.71754
